Terminal Aerodrome Forecast
Issued by NWS

Home | Current Version | Previous Version | Text Only | Print | Product List | Glossary On
Versions: 1 2 3 4 5 6 7 8 9 10 11 12 13 14
535
FTUS45 KPIH 251739
TAFSUN
TAF
KSUN 251739Z 2518/2618 16007KT P6SM SCT180
     FM260000 31008KT P6SM FEW200=

USA.gov is the U.S. government's official web portal to all federal, state and local government web resources and services.